This is the latest recevied weather packets stored in our database for station/object S57ZT-10. If no packets are shown the sender has not sent any weather packets the latest 10 day(s).
| Time | Temp. | Humidity | Pressure | Rain* | Wind** | Luminosity | Snow |
|---|---|---|---|---|---|---|---|
| 1777543268 | 20.56° C | 21% | 1029.8 hPa | - | - | - | - |
| 1777542368 | 20° C | 21% | 1030 hPa | - | - | - | - |
| 1777541468 | 19.44° C | 21% | 1030.1 hPa | - | - | - | - |
| 1777540568 | 18.89° C | 24% | 1030.1 hPa | - | - | - | - |
| 1777539668 | 18.33° C | 23% | 1030.1 hPa | - | - | - | - |
| 1777537868 | 17.22° C | 24% | 1030.2 hPa | - | - | - | - |
| 1777536967 | 16.11° C | 26% | 1030.3 hPa | - | - | - | - |
| 1777536067 | 15.56° C | 26% | 1030.4 hPa | - | - | - | - |
| 1777535237 | 14.44° C | 28% | 1030.3 hPa | - | - | - | - |
| 1777535167 | 14.44° C | 28% | 1030.3 hPa | - | - | - | - |
| 1777534323 | 13.89° C | 28% | 1030.4 hPa | - | - | - | - |
| 1777533371 | 12.78° C | 29% | 1030.5 hPa | - | - | - | - |
| 1777532503 | 12.78° C | 31% | 1030.7 hPa | - | - | - | - |
| 1777531621 | 11.67° C | 35% | 1030.8 hPa | - | - | - | - |
| 1777531570 | 11.67° C | 35% | 1030.8 hPa | - | - | - | - |
| 1777530669 | 11.11° C | 35% | 1030.7 hPa | - | - | - | - |
| 1777529827 | 10.56° C | 36% | 1030.7 hPa | - | - | - | - |
| 1777529769 | 10.56° C | 36% | 1030.7 hPa | - | - | - | - |
| 1777527967 | 8.89° C | 40% | 1030.9 hPa | - | - | - | - |
| 1777527119 | 8.33° C | 39% | 1030.8 hPa | - | - | - | - |
| 1777527069 | 8.33° C | 39% | 1030.8 hPa | - | - | - | - |
| 1777526203 | 8.33° C | 41% | 1030.7 hPa | - | - | - | - |
| 1777525309 | 7.78° C | 41% | 1030.6 hPa | - | - | - | - |
| 1777525270 | 7.78° C | 41% | 1030.6 hPa | - | - | - | - |
| 1777524401 | 7.78° C | 41% | 1030.5 hPa | - | - | - | - |
* Rain since midnight (hover to see other rain measurements)
** Current wind speed in m/s (hover to see current wind gust speed)